sensor_id;sensor_type;location;lat;lon;timestamp;temperature;humidity
67870;DHT22;54673;52.262;6.830;2023-04-12T00:01:48;18.20;48.90
67870;DHT22;54673;52.262;6.830;2023-04-12T00:04:14;18.20;49.00
67870;DHT22;54673;52.262;6.830;2023-04-12T00:06:41;18.20;48.90
67870;DHT22;54673;52.262;6.830;2023-04-12T00:09:07;18.20;48.90
67870;DHT22;54673;52.262;6.830;2023-04-12T00:11:33;18.20;48.80
67870;DHT22;54673;52.262;6.830;2023-04-12T00:13:59;18.20;48.80
67870;DHT22;54673;52.262;6.830;2023-04-12T00:16:25;18.20;48.80
67870;DHT22;54673;52.262;6.830;2023-04-12T00:18:50;18.20;48.70
67870;DHT22;54673;52.262;6.830;2023-04-12T00:21:16;18.20;48.70
67870;DHT22;54673;52.262;6.830;2023-04-12T00:23:46;18.20;48.70
67870;DHT22;54673;52.262;6.830;2023-04-12T00:26:14;18.20;48.70
67870;DHT22;54673;52.262;6.830;2023-04-12T00:28:40;18.20;48.70
67870;DHT22;54673;52.262;6.830;2023-04-12T00:31:06;18.20;48.70
67870;DHT22;54673;52.262;6.830;2023-04-12T00:33:33;18.20;48.60
67870;DHT22;54673;52.262;6.830;2023-04-12T00:35:58;18.10;48.60
67870;DHT22;54673;52.262;6.830;2023-04-12T00:38:24;18.20;48.70
67870;DHT22;54673;52.262;6.830;2023-04-12T00:40:49;18.20;48.70
67870;DHT22;54673;52.262;6.830;2023-04-12T00:43:15;18.20;48.60
67870;DHT22;54673;52.262;6.830;2023-04-12T00:45:43;18.10;48.70
67870;DHT22;54673;52.262;6.830;2023-04-12T00:48:10;18.10;48.60
67870;DHT22;54673;52.262;6.830;2023-04-12T00:50:36;18.10;48.60
67870;DHT22;54673;52.262;6.830;2023-04-12T00:53:06;18.10;48.60
67870;DHT22;54673;52.262;6.830;2023-04-12T00:55:34;18.10;48.70
67870;DHT22;54673;52.262;6.830;2023-04-12T00:58:00;18.10;48.60
67870;DHT22;54673;52.262;6.830;2023-04-12T01:00:25;18.10;48.70
67870;DHT22;54673;52.262;6.830;2023-04-12T01:02:51;18.10;48.80
67870;DHT22;54673;52.262;6.830;2023-04-12T01:05:19;18.10;48.80
67870;DHT22;54673;52.262;6.830;2023-04-12T01:08:08;18.10;48.70
67870;DHT22;54673;52.262;6.830;2023-04-12T01:10:45;18.10;48.70
67870;DHT22;54673;52.262;6.830;2023-04-12T01:13:38;18.10;48.70
67870;DHT22;54673;52.262;6.830;2023-04-12T01:16:19;18.10;48.70
67870;DHT22;54673;52.262;6.830;2023-04-12T01:18:47;18.10;48.70
67870;DHT22;54673;52.262;6.830;2023-04-12T01:21:23;18.10;48.70
67870;DHT22;54673;52.262;6.830;2023-04-12T01:24:32;18.10;48.70
67870;DHT22;54673;52.262;6.830;2023-04-12T01:27:01;18.10;48.80
67870;DHT22;54673;52.262;6.830;2023-04-12T01:29:28;18.00;48.70
67870;DHT22;54673;52.262;6.830;2023-04-12T01:31:59;18.00;48.80
67870;DHT22;54673;52.262;6.830;2023-04-12T01:34:31;18.00;48.70
67870;DHT22;54673;52.262;6.830;2023-04-12T01:37:00;18.00;48.80
67870;DHT22;54673;52.262;6.830;2023-04-12T01:39:26;18.00;48.80
67870;DHT22;54673;52.262;6.830;2023-04-12T01:41:52;18.00;48.80
67870;DHT22;54673;52.262;6.830;2023-04-12T01:44:18;18.00;48.80
67870;DHT22;54673;52.262;6.830;2023-04-12T01:46:44;18.00;48.70
67870;DHT22;54673;52.262;6.830;2023-04-12T01:49:12;18.00;48.70
67870;DHT22;54673;52.262;6.830;2023-04-12T01:51:54;18.00;48.70
67870;DHT22;54673;52.262;6.830;2023-04-12T01:54:29;18.00;48.70
67870;DHT22;54673;52.262;6.830;2023-04-12T01:56:57;18.00;48.70
67870;DHT22;54673;52.262;6.830;2023-04-12T01:59:27;18.00;48.70
67870;DHT22;54673;52.262;6.830;2023-04-12T02:01:54;18.00;49.40
67870;DHT22;54673;52.262;6.830;2023-04-12T02:04:21;18.00;48.70
67870;DHT22;54673;52.262;6.830;2023-04-12T02:06:49;18.00;48.70
67870;DHT22;54673;52.262;6.830;2023-04-12T02:09:15;18.00;48.70
67870;DHT22;54673;52.262;6.830;2023-04-12T02:11:45;18.00;48.60
67870;DHT22;54673;52.262;6.830;2023-04-12T02:14:11;18.00;48.60
67870;DHT22;54673;52.262;6.830;2023-04-12T02:16:37;18.00;48.50
67870;DHT22;54673;52.262;6.830;2023-04-12T02:19:02;18.00;48.60
67870;DHT22;54673;52.262;6.830;2023-04-12T02:21:28;18.00;48.50
67870;DHT22;54673;52.262;6.830;2023-04-12T02:23:53;18.00;48.50
67870;DHT22;54673;52.262;6.830;2023-04-12T02:26:19;18.00;48.50
67870;DHT22;54673;52.262;6.830;2023-04-12T02:28:45;17.90;48.40
67870;DHT22;54673;52.262;6.830;2023-04-12T02:31:10;17.90;48.40
67870;DHT22;54673;52.262;6.830;2023-04-12T02:33:36;17.90;48.50
67870;DHT22;54673;52.262;6.830;2023-04-12T02:36:01;17.90;48.50
67870;DHT22;54673;52.262;6.830;2023-04-12T02:38:28;17.90;48.40
67870;DHT22;54673;52.262;6.830;2023-04-12T02:40:53;17.90;48.40
67870;DHT22;54673;52.262;6.830;2023-04-12T02:43:19;18.00;48.50
67870;DHT22;54673;52.262;6.830;2023-04-12T02:45:46;17.90;48.40
67870;DHT22;54673;52.262;6.830;2023-04-12T02:48:11;17.90;48.40
67870;DHT22;54673;52.262;6.830;2023-04-12T02:50:37;17.90;48.40
67870;DHT22;54673;52.262;6.830;2023-04-12T02:53:02;17.90;48.40
67870;DHT22;54673;52.262;6.830;2023-04-12T02:55:28;17.60;48.20
67870;DHT22;54673;52.262;6.830;2023-04-12T02:57:55;17.90;48.40
67870;DHT22;54673;52.262;6.830;2023-04-12T03:00:22;17.90;48.40
67870;DHT22;54673;52.262;6.830;2023-04-12T03:02:47;17.90;48.30
67870;DHT22;54673;52.262;6.830;2023-04-12T03:05:16;17.90;48.30
67870;DHT22;54673;52.262;6.830;2023-04-12T03:07:43;17.90;48.30
67870;DHT22;54673;52.262;6.830;2023-04-12T03:10:09;17.90;48.30
67870;DHT22;54673;52.262;6.830;2023-04-12T03:12:38;17.90;48.20
67870;DHT22;54673;52.262;6.830;2023-04-12T03:15:04;17.90;48.20
67870;DHT22;54673;52.262;6.830;2023-04-12T03:17:29;17.90;48.20
67870;DHT22;54673;52.262;6.830;2023-04-12T03:19:55;17.90;48.10
67870;DHT22;54673;52.262;6.830;2023-04-12T03:22:22;17.90;48.20
67870;DHT22;54673;52.262;6.830;2023-04-12T03:24:49;17.90;48.10
67870;DHT22;54673;52.262;6.830;2023-04-12T03:27:16;17.90;48.20
67870;DHT22;54673;52.262;6.830;2023-04-12T03:29:41;17.80;48.10
67870;DHT22;54673;52.262;6.830;2023-04-12T03:32:07;17.90;48.20
67870;DHT22;54673;52.262;6.830;2023-04-12T03:34:33;17.80;48.10
67870;DHT22;54673;52.262;6.830;2023-04-12T03:37:00;17.80;48.10
67870;DHT22;54673;52.262;6.830;2023-04-12T03:39:25;17.80;48.10
67870;DHT22;54673;52.262;6.830;2023-04-12T03:41:51;17.80;48.00
67870;DHT22;54673;52.262;6.830;2023-04-12T03:44:18;17.80;48.00
67870;DHT22;54673;52.262;6.830;2023-04-12T03:46:43;17.80;48.00
67870;DHT22;54673;52.262;6.830;2023-04-12T03:49:10;17.80;48.00
67870;DHT22;54673;52.262;6.830;2023-04-12T03:51:35;17.80;48.10
67870;DHT22;54673;52.262;6.830;2023-04-12T03:54:10;17.80;48.00
67870;DHT22;54673;52.262;6.830;2023-04-12T03:56:37;17.80;47.90
67870;DHT22;54673;52.262;6.830;2023-04-12T03:59:06;17.80;47.90
67870;DHT22;54673;52.262;6.830;2023-04-12T04:01:34;17.80;48.00
67870;DHT22;54673;52.262;6.830;2023-04-12T04:04:01;17.80;47.90
67870;DHT22;54673;52.262;6.830;2023-04-12T04:06:26;17.80;47.90
67870;DHT22;54673;52.262;6.830;2023-04-12T04:08:56;17.80;47.80
67870;DHT22;54673;52.262;6.830;2023-04-12T04:11:22;17.90;47.90
67870;DHT22;54673;52.262;6.830;2023-04-12T04:13:49;17.80;47.80
67870;DHT22;54673;52.262;6.830;2023-04-12T04:16:14;17.80;47.80
67870;DHT22;54673;52.262;6.830;2023-04-12T04:18:40;17.70;47.70
67870;DHT22;54673;52.262;6.830;2023-04-12T04:21:06;17.70;47.70
67870;DHT22;54673;52.262;6.830;2023-04-12T04:23:32;17.80;47.80
67870;DHT22;54673;52.262;6.830;2023-04-12T04:26:07;17.80;47.70
67870;DHT22;54673;52.262;6.830;2023-04-12T04:28:36;17.70;47.60
67870;DHT22;54673;52.262;6.830;2023-04-12T04:31:04;17.70;47.60
67870;DHT22;54673;52.262;6.830;2023-04-12T04:33:34;17.80;47.70
67870;DHT22;54673;52.262;6.830;2023-04-12T04:36:01;17.70;47.60
67870;DHT22;54673;52.262;6.830;2023-04-12T04:38:28;17.70;47.50
67870;DHT22;54673;52.262;6.830;2023-04-12T04:40:57;17.70;47.60
67870;DHT22;54673;52.262;6.830;2023-04-12T04:43:24;17.70;47.60
67870;DHT22;54673;52.262;6.830;2023-04-12T04:45:51;17.70;47.50
67870;DHT22;54673;52.262;6.830;2023-04-12T04:48:19;17.70;47.60
67870;DHT22;54673;52.262;6.830;2023-04-12T04:50:45;17.70;47.50
67870;DHT22;54673;52.262;6.830;2023-04-12T04:53:11;17.70;47.50
67870;DHT22;54673;52.262;6.830;2023-04-12T04:55:37;17.70;47.60
67870;DHT22;54673;52.262;6.830;2023-04-12T04:58:04;17.70;47.50
67870;DHT22;54673;52.262;6.830;2023-04-12T05:00:30;17.70;47.60
67870;DHT22;54673;52.262;6.830;2023-04-12T05:02:55;17.70;47.60
67870;DHT22;54673;52.262;6.830;2023-04-12T05:05:21;17.70;47.50
67870;DHT22;54673;52.262;6.830;2023-04-12T05:07:50;17.70;47.50
67870;DHT22;54673;52.262;6.830;2023-04-12T05:10:15;17.70;47.50
67870;DHT22;54673;52.262;6.830;2023-04-12T05:12:41;17.70;47.50
67870;DHT22;54673;52.262;6.830;2023-04-12T05:15:07;17.70;47.50
67870;DHT22;54673;52.262;6.830;2023-04-12T05:17:32;17.70;47.50
67870;DHT22;54673;52.262;6.830;2023-04-12T05:19:59;17.70;47.50
67870;DHT22;54673;52.262;6.830;2023-04-12T05:22:25;17.70;47.50
67870;DHT22;54673;52.262;6.830;2023-04-12T05:24:51;17.70;47.50
67870;DHT22;54673;52.262;6.830;2023-04-12T05:27:16;17.60;47.50
67870;DHT22;54673;52.262;6.830;2023-04-12T05:29:43;17.60;47.40
67870;DHT22;54673;52.262;6.830;2023-04-12T05:32:09;17.60;47.60
67870;DHT22;54673;52.262;6.830;2023-04-12T05:34:35;17.60;47.60
67870;DHT22;54673;52.262;6.830;2023-04-12T05:37:01;17.60;47.60
67870;DHT22;54673;52.262;6.830;2023-04-12T05:39:27;17.70;47.80
67870;DHT22;54673;52.262;6.830;2023-04-12T05:41:53;17.60;47.80
67870;DHT22;54673;52.262;6.830;2023-04-12T05:44:18;17.70;47.90
67870;DHT22;54673;52.262;6.830;2023-04-12T05:46:44;17.60;47.80
67870;DHT22;54673;52.262;6.830;2023-04-12T05:49:09;17.70;47.90
67870;DHT22;54673;52.262;6.830;2023-04-12T05:51:35;17.60;47.80
67870;DHT22;54673;52.262;6.830;2023-04-12T05:54:01;17.60;47.90
67870;DHT22;54673;52.262;6.830;2023-04-12T05:56:30;17.60;47.90
67870;DHT22;54673;52.262;6.830;2023-04-12T05:58:56;17.60;48.00
67870;DHT22;54673;52.262;6.830;2023-04-12T06:01:22;17.60;48.00
67870;DHT22;54673;52.262;6.830;2023-04-12T06:03:49;17.60;48.00
67870;DHT22;54673;52.262;6.830;2023-04-12T06:06:15;17.60;48.00
67870;DHT22;54673;52.262;6.830;2023-04-12T06:08:40;17.60;48.00
67870;DHT22;54673;52.262;6.830;2023-04-12T06:11:06;17.60;48.10
67870;DHT22;54673;52.262;6.830;2023-04-12T06:13:32;17.60;48.10
67870;DHT22;54673;52.262;6.830;2023-04-12T06:15:58;17.60;48.20
67870;DHT22;54673;52.262;6.830;2023-04-12T06:18:23;17.60;48.20
67870;DHT22;54673;52.262;6.830;2023-04-12T06:20:49;17.60;48.10
67870;DHT22;54673;52.262;6.830;2023-04-12T06:23:15;17.60;48.20
67870;DHT22;54673;52.262;6.830;2023-04-12T06:25:42;17.60;48.20
67870;DHT22;54673;52.262;6.830;2023-04-12T06:28:08;17.60;48.20
67870;DHT22;54673;52.262;6.830;2023-04-12T06:30:33;17.60;48.30
67870;DHT22;54673;52.262;6.830;2023-04-12T06:32:59;17.60;48.30
67870;DHT22;54673;52.262;6.830;2023-04-12T06:35:24;17.60;48.30
67870;DHT22;54673;52.262;6.830;2023-04-12T06:37:50;17.50;48.20
67870;DHT22;54673;52.262;6.830;2023-04-12T06:40:15;17.60;48.30
67870;DHT22;54673;52.262;6.830;2023-04-12T06:42:41;17.60;48.40
67870;DHT22;54673;52.262;6.830;2023-04-12T06:45:07;17.50;48.30
67870;DHT22;54673;52.262;6.830;2023-04-12T06:47:32;17.60;48.30
67870;DHT22;54673;52.262;6.830;2023-04-12T06:49:58;17.60;48.40
67870;DHT22;54673;52.262;6.830;2023-04-12T06:52:24;17.60;48.40
67870;DHT22;54673;52.262;6.830;2023-04-12T06:54:51;17.60;48.40
67870;DHT22;54673;52.262;6.830;2023-04-12T06:57:16;17.60;48.50
67870;DHT22;54673;52.262;6.830;2023-04-12T06:59:42;17.50;48.40
67870;DHT22;54673;52.262;6.830;2023-04-12T07:02:08;17.60;48.50
67870;DHT22;54673;52.262;6.830;2023-04-12T07:04:33;17.60;48.50
67870;DHT22;54673;52.262;6.830;2023-04-12T07:06:59;17.50;48.50
67870;DHT22;54673;52.262;6.830;2023-04-12T07:09:25;17.50;48.50
67870;DHT22;54673;52.262;6.830;2023-04-12T07:11:50;17.50;48.50
67870;DHT22;54673;52.262;6.830;2023-04-12T07:14:16;17.60;48.60
67870;DHT22;54673;52.262;6.830;2023-04-12T07:16:42;17.50;48.50
67870;DHT22;54673;52.262;6.830;2023-04-12T07:19:08;17.60;48.60
67870;DHT22;54673;52.262;6.830;2023-04-12T07:21:33;17.60;48.60
67870;DHT22;54673;52.262;6.830;2023-04-12T07:23:59;17.60;48.60
67870;DHT22;54673;52.262;6.830;2023-04-12T07:26:25;17.50;48.70
67870;DHT22;54673;52.262;6.830;2023-04-12T07:28:51;17.60;48.70
67870;DHT22;54673;52.262;6.830;2023-04-12T07:31:17;17.50;48.70
67870;DHT22;54673;52.262;6.830;2023-04-12T07:33:43;17.60;48.70
67870;DHT22;54673;52.262;6.830;2023-04-12T07:36:09;17.60;48.80
67870;DHT22;54673;52.262;6.830;2023-04-12T07:38:34;17.60;48.70
67870;DHT22;54673;52.262;6.830;2023-04-12T07:41:00;17.50;48.70
67870;DHT22;54673;52.262;6.830;2023-04-12T07:43:26;17.50;48.70
67870;DHT22;54673;52.262;6.830;2023-04-12T07:45:53;17.60;48.80
67870;DHT22;54673;52.262;6.830;2023-04-12T07:48:19;17.60;48.80
67870;DHT22;54673;52.262;6.830;2023-04-12T07:50:45;17.60;48.90
67870;DHT22;54673;52.262;6.830;2023-04-12T07:55:44;17.60;48.90
67870;DHT22;54673;52.262;6.830;2023-04-12T07:58:09;17.60;49.00
67870;DHT22;54673;52.262;6.830;2023-04-12T08:00:35;17.60;48.90
67870;DHT22;54673;52.262;6.830;2023-04-12T08:03:01;17.40;48.80
67870;DHT22;54673;52.262;6.830;2023-04-12T08:05:26;17.60;48.90
67870;DHT22;54673;52.262;6.830;2023-04-12T08:07:52;17.60;48.90
67870;DHT22;54673;52.262;6.830;2023-04-12T08:10:17;17.60;49.00
67870;DHT22;54673;52.262;6.830;2023-04-12T08:12:43;17.60;48.90
67870;DHT22;54673;52.262;6.830;2023-04-12T08:15:09;17.60;49.00
67870;DHT22;54673;52.262;6.830;2023-04-12T08:17:34;17.60;49.10
67870;DHT22;54673;52.262;6.830;2023-04-12T08:20:00;17.70;49.10
67870;DHT22;54673;52.262;6.830;2023-04-12T08:22:25;17.60;49.10
67870;DHT22;54673;52.262;6.830;2023-04-12T08:24:51;17.60;49.10
67870;DHT22;54673;52.262;6.830;2023-04-12T08:27:17;17.60;49.10
67870;DHT22;54673;52.262;6.830;2023-04-12T08:29:43;17.60;49.20
67870;DHT22;54673;52.262;6.830;2023-04-12T08:32:09;17.60;49.10
67870;DHT22;54673;52.262;6.830;2023-04-12T08:34:37;17.60;49.20
67870;DHT22;54673;52.262;6.830;2023-04-12T08:37:02;17.60;49.10
67870;DHT22;54673;52.262;6.830;2023-04-12T08:39:29;17.60;49.10
67870;DHT22;54673;52.262;6.830;2023-04-12T08:41:56;17.60;49.10
67870;DHT22;54673;52.262;6.830;2023-04-12T08:44:33;17.60;49.10
67870;DHT22;54673;52.262;6.830;2023-04-12T08:47:01;17.60;49.20
67870;DHT22;54673;52.262;6.830;2023-04-12T08:49:27;17.60;49.20
67870;DHT22;54673;52.262;6.830;2023-04-12T08:51:53;17.60;49.20
67870;DHT22;54673;52.262;6.830;2023-04-12T08:54:19;17.60;49.20
67870;DHT22;54673;52.262;6.830;2023-04-12T08:56:45;17.60;49.20
67870;DHT22;54673;52.262;6.830;2023-04-12T08:59:13;17.60;49.20
67870;DHT22;54673;52.262;6.830;2023-04-12T09:01:40;17.60;49.20
67870;DHT22;54673;52.262;6.830;2023-04-12T09:04:06;17.60;49.30
67870;DHT22;54673;52.262;6.830;2023-04-12T09:06:32;17.80;49.30
67870;DHT22;54673;52.262;6.830;2023-04-12T09:08:58;17.60;49.20
67870;DHT22;54673;52.262;6.830;2023-04-12T09:11:27;17.60;49.20
67870;DHT22;54673;52.262;6.830;2023-04-12T09:13:54;17.60;49.20
67870;DHT22;54673;52.262;6.830;2023-04-12T09:16:40;17.60;49.20
67870;DHT22;54673;52.262;6.830;2023-04-12T09:19:06;17.60;49.20
67870;DHT22;54673;52.262;6.830;2023-04-12T09:21:33;17.60;49.30
67870;DHT22;54673;52.262;6.830;2023-04-12T09:24:05;17.60;49.30
67870;DHT22;54673;52.262;6.830;2023-04-12T09:26:34;17.60;49.40
67870;DHT22;54673;52.262;6.830;2023-04-12T09:29:01;17.60;49.50
67870;DHT22;54673;52.262;6.830;2023-04-12T09:31:26;17.60;49.50
67870;DHT22;54673;52.262;6.830;2023-04-12T09:33:52;17.70;49.50
67870;DHT22;54673;52.262;6.830;2023-04-12T09:36:37;17.70;49.60
67870;DHT22;54673;52.262;6.830;2023-04-12T09:39:03;17.70;49.60
67870;DHT22;54673;52.262;6.830;2023-04-12T09:41:30;17.80;49.70
67870;DHT22;54673;52.262;6.830;2023-04-12T09:44:00;17.90;49.80
67870;DHT22;54673;52.262;6.830;2023-04-12T09:46:26;17.90;49.80
67870;DHT22;54673;52.262;6.830;2023-04-12T09:48:53;17.90;49.70
67870;DHT22;54673;52.262;6.830;2023-04-12T09:51:27;17.90;49.70
67870;DHT22;54673;52.262;6.830;2023-04-12T09:54:01;17.90;49.80
67870;DHT22;54673;52.262;6.830;2023-04-12T09:56:29;18.00;49.80
67870;DHT22;54673;52.262;6.830;2023-04-12T09:59:00;18.00;50.00
67870;DHT22;54673;52.262;6.830;2023-04-12T10:01:35;18.00;50.00
67870;DHT22;54673;52.262;6.830;2023-04-12T10:04:01;19.00;50.50
67870;DHT22;54673;52.262;6.830;2023-04-12T10:06:28;18.10;49.90
67870;DHT22;54673;52.262;6.830;2023-04-12T10:08:54;18.10;50.10
67870;DHT22;54673;52.262;6.830;2023-04-12T10:11:20;18.10;50.00
67870;DHT22;54673;52.262;6.830;2023-04-12T10:13:47;18.20;50.20
67870;DHT22;54673;52.262;6.830;2023-04-12T10:16:14;17.70;49.70
67870;DHT22;54673;52.262;6.830;2023-04-12T10:18:41;18.20;50.00
67870;DHT22;54673;52.262;6.830;2023-04-12T10:21:07;18.30;50.00
67870;DHT22;54673;52.262;6.830;2023-04-12T10:23:33;18.30;50.10
67870;DHT22;54673;52.262;6.830;2023-04-12T10:26:00;18.30;50.10
67870;DHT22;54673;52.262;6.830;2023-04-12T10:28:26;18.40;50.20
67870;DHT22;54673;52.262;6.830;2023-04-12T10:30:56;18.40;50.20
67870;DHT22;54673;52.262;6.830;2023-04-12T10:33:29;18.40;50.10
67870;DHT22;54673;52.262;6.830;2023-04-12T10:36:00;18.40;51.00
67870;DHT22;54673;52.262;6.830;2023-04-12T10:38:28;18.40;50.20
67870;DHT22;54673;52.262;6.830;2023-04-12T10:41:19;18.50;50.30
67870;DHT22;54673;52.262;6.830;2023-04-12T10:43:49;18.50;50.30
67870;DHT22;54673;52.262;6.830;2023-04-12T10:49:07;18.50;50.20
67870;DHT22;54673;52.262;6.830;2023-04-12T10:51:33;18.60;50.20
67870;DHT22;54673;52.262;6.830;2023-04-12T10:56:44;18.70;50.40
67870;DHT22;54673;52.262;6.830;2023-04-12T10:59:11;18.70;50.30
67870;DHT22;54673;52.262;6.830;2023-04-12T11:01:37;18.70;50.20
67870;DHT22;54673;52.262;6.830;2023-04-12T11:11:50;18.70;50.40
67870;DHT22;54673;52.262;6.830;2023-04-12T11:14:16;18.80;50.30
67870;DHT22;54673;52.262;6.830;2023-04-12T11:19:30;18.80;50.30
67870;DHT22;54673;52.262;6.830;2023-04-12T11:21:57;18.80;50.20
67870;DHT22;54673;52.262;6.830;2023-04-12T11:24:24;18.80;50.20
67870;DHT22;54673;52.262;6.830;2023-04-12T11:26:50;18.80;50.20
67870;DHT22;54673;52.262;6.830;2023-04-12T11:29:22;18.90;50.20
67870;DHT22;54673;52.262;6.830;2023-04-12T11:31:48;18.90;50.10
67870;DHT22;54673;52.262;6.830;2023-04-12T11:34:16;18.80;50.10
67870;DHT22;54673;52.262;6.830;2023-04-12T11:36:43;18.80;50.10
67870;DHT22;54673;52.262;6.830;2023-04-12T11:39:09;18.80;50.00
67870;DHT22;54673;52.262;6.830;2023-04-12T11:41:35;18.70;50.00
67870;DHT22;54673;52.262;6.830;2023-04-12T11:44:00;18.70;50.00
67870;DHT22;54673;52.262;6.830;2023-04-12T11:46:32;18.70;49.90
67870;DHT22;54673;52.262;6.830;2023-04-12T11:48:58;18.70;49.90
67870;DHT22;54673;52.262;6.830;2023-04-12T11:51:24;18.70;49.80
67870;DHT22;54673;52.262;6.830;2023-04-12T11:53:54;18.70;49.80
67870;DHT22;54673;52.262;6.830;2023-04-12T11:56:21;18.70;49.80
67870;DHT22;54673;52.262;6.830;2023-04-12T11:58:47;18.70;49.70
67870;DHT22;54673;52.262;6.830;2023-04-12T12:01:17;18.70;49.80
67870;DHT22;54673;52.262;6.830;2023-04-12T12:03:44;18.70;49.80
67870;DHT22;54673;52.262;6.830;2023-04-12T12:06:10;18.70;49.80
67870;DHT22;54673;52.262;6.830;2023-04-12T12:08:36;18.70;49.70
67870;DHT22;54673;52.262;6.830;2023-04-12T12:11:02;18.60;49.70
67870;DHT22;54673;52.262;6.830;2023-04-12T12:13:50;18.60;49.60
67870;DHT22;54673;52.262;6.830;2023-04-12T12:16:15;18.60;49.60
67870;DHT22;54673;52.262;6.830;2023-04-12T12:18:45;18.60;49.60
67870;DHT22;54673;52.262;6.830;2023-04-12T12:21:13;18.60;49.60
67870;DHT22;54673;52.262;6.830;2023-04-12T12:23:41;18.60;49.60
67870;DHT22;54673;52.262;6.830;2023-04-12T12:26:07;18.60;49.60
67870;DHT22;54673;52.262;6.830;2023-04-12T12:28:37;18.60;49.60
67870;DHT22;54673;52.262;6.830;2023-04-12T12:31:05;18.60;49.60
67870;DHT22;54673;52.262;6.830;2023-04-12T12:33:38;18.50;49.50
67870;DHT22;54673;52.262;6.830;2023-04-12T12:36:05;18.50;49.50
67870;DHT22;54673;52.262;6.830;2023-04-12T12:38:37;18.60;49.60
67870;DHT22;54673;52.262;6.830;2023-04-12T12:41:19;18.60;49.60
67870;DHT22;54673;52.262;6.830;2023-04-12T12:43:50;18.50;49.50
67870;DHT22;54673;52.262;6.830;2023-04-12T12:46:16;18.50;49.60
67870;DHT22;54673;52.262;6.830;2023-04-12T12:48:43;18.50;49.50
67870;DHT22;54673;52.262;6.830;2023-04-12T12:51:10;18.50;49.60
67870;DHT22;54673;52.262;6.830;2023-04-12T12:53:37;18.50;49.60
67870;DHT22;54673;52.262;6.830;2023-04-12T12:56:03;18.60;49.80
67870;DHT22;54673;52.262;6.830;2023-04-12T12:58:29;18.60;50.00
67870;DHT22;54673;52.262;6.830;2023-04-12T13:00:55;18.60;50.20
67870;DHT22;54673;52.262;6.830;2023-04-12T13:03:21;18.70;50.40
67870;DHT22;54673;52.262;6.830;2023-04-12T13:05:46;18.80;50.50
67870;DHT22;54673;52.262;6.830;2023-04-12T13:08:12;18.90;50.60
67870;DHT22;54673;52.262;6.830;2023-04-12T13:10:37;18.90;50.60
67870;DHT22;54673;52.262;6.830;2023-04-12T13:13:03;19.00;50.70
67870;DHT22;54673;52.262;6.830;2023-04-12T13:15:29;19.10;50.80
67870;DHT22;54673;52.262;6.830;2023-04-12T13:17:55;19.10;50.90
67870;DHT22;54673;52.262;6.830;2023-04-12T13:20:21;19.10;50.90
67870;DHT22;54673;52.262;6.830;2023-04-12T13:22:47;19.10;51.80
67870;DHT22;54673;52.262;6.830;2023-04-12T13:25:12;19.10;50.90
67870;DHT22;54673;52.262;6.830;2023-04-12T13:27:38;19.20;51.00
67870;DHT22;54673;52.262;6.830;2023-04-12T13:30:04;19.20;50.80
67870;DHT22;54673;52.262;6.830;2023-04-12T13:32:30;19.30;50.90
67870;DHT22;54673;52.262;6.830;2023-04-12T13:34:55;19.30;51.00
67870;DHT22;54673;52.262;6.830;2023-04-12T13:37:21;19.30;50.90
67870;DHT22;54673;52.262;6.830;2023-04-12T13:39:46;19.40;51.00
67870;DHT22;54673;52.262;6.830;2023-04-12T13:42:12;19.40;51.00
67870;DHT22;54673;52.262;6.830;2023-04-12T13:44:38;19.40;50.90
67870;DHT22;54673;52.262;6.830;2023-04-12T13:47:03;19.50;50.90
67870;DHT22;54673;52.262;6.830;2023-04-12T13:49:29;19.50;50.90
67870;DHT22;54673;52.262;6.830;2023-04-12T13:51:55;19.60;50.90
67870;DHT22;54673;52.262;6.830;2023-04-12T13:54:21;19.60;50.70
67870;DHT22;54673;52.262;6.830;2023-04-12T13:56:46;19.50;50.60
67870;DHT22;54673;52.262;6.830;2023-04-12T13:59:12;19.50;50.60
67870;DHT22;54673;52.262;6.830;2023-04-12T14:01:38;19.50;50.50
67870;DHT22;54673;52.262;6.830;2023-04-12T14:04:05;19.40;50.50
67870;DHT22;54673;52.262;6.830;2023-04-12T14:06:31;19.40;50.30
67870;DHT22;54673;52.262;6.830;2023-04-12T14:08:57;19.50;50.30
67870;DHT22;54673;52.262;6.830;2023-04-12T14:11:23;19.40;50.20
67870;DHT22;54673;52.262;6.830;2023-04-12T14:13:51;19.50;50.30
67870;DHT22;54673;52.262;6.830;2023-04-12T14:16:17;19.50;50.30
67870;DHT22;54673;52.262;6.830;2023-04-12T14:18:42;19.40;50.20
67870;DHT22;54673;52.262;6.830;2023-04-12T14:21:08;19.40;50.20
67870;DHT22;54673;52.262;6.830;2023-04-12T14:23:34;19.40;50.20
67870;DHT22;54673;52.262;6.830;2023-04-12T14:25:59;19.50;50.20
67870;DHT22;54673;52.262;6.830;2023-04-12T14:28:25;19.50;50.30
67870;DHT22;54673;52.262;6.830;2023-04-12T14:30:56;19.50;50.30
67870;DHT22;54673;52.262;6.830;2023-04-12T14:33:23;19.60;50.40
67870;DHT22;54673;52.262;6.830;2023-04-12T14:35:49;19.60;50.40
67870;DHT22;54673;52.262;6.830;2023-04-12T14:38:15;19.70;50.50
67870;DHT22;54673;52.262;6.830;2023-04-12T14:40:41;19.70;50.40
67870;DHT22;54673;52.262;6.830;2023-04-12T14:43:07;19.80;50.50
67870;DHT22;54673;52.262;6.830;2023-04-12T14:45:35;19.80;50.50
67870;DHT22;54673;52.262;6.830;2023-04-12T14:48:02;19.90;50.50
67870;DHT22;54673;52.262;6.830;2023-04-12T14:50:27;19.90;50.40
67870;DHT22;54673;52.262;6.830;2023-04-12T14:52:53;19.90;50.50
67870;DHT22;54673;52.262;6.830;2023-04-12T14:55:18;19.90;50.60
67870;DHT22;54673;52.262;6.830;2023-04-12T14:57:45;19.90;50.70
67870;DHT22;54673;52.262;6.830;2023-04-12T15:00:11;19.90;50.80
67870;DHT22;54673;52.262;6.830;2023-04-12T15:02:41;19.90;50.80
67870;DHT22;54673;52.262;6.830;2023-04-12T15:05:09;20.00;50.80
67870;DHT22;54673;52.262;6.830;2023-04-12T15:07:35;20.00;50.60
67870;DHT22;54673;52.262;6.830;2023-04-12T15:10:01;20.00;50.50
67870;DHT22;54673;52.262;6.830;2023-04-12T15:12:29;20.10;50.30
67870;DHT22;54673;52.262;6.830;2023-04-12T15:14:57;20.10;50.30
67870;DHT22;54673;52.262;6.830;2023-04-12T15:17:24;20.10;50.20
67870;DHT22;54673;52.262;6.830;2023-04-12T15:19:50;20.20;50.10
67870;DHT22;54673;52.262;6.830;2023-04-12T15:22:16;20.20;50.00
67870;DHT22;54673;52.262;6.830;2023-04-12T15:24:41;20.20;49.90
67870;DHT22;54673;52.262;6.830;2023-04-12T15:27:07;20.30;49.90
67870;DHT22;54673;52.262;6.830;2023-04-12T15:29:33;20.30;49.80
67870;DHT22;54673;52.262;6.830;2023-04-12T15:31:59;20.30;49.90
67870;DHT22;54673;52.262;6.830;2023-04-12T15:34:25;20.30;49.90
67870;DHT22;54673;52.262;6.830;2023-04-12T15:36:52;20.30;49.90
67870;DHT22;54673;52.262;6.830;2023-04-12T15:39:18;20.30;49.90
67870;DHT22;54673;52.262;6.830;2023-04-12T15:41:44;20.30;49.90
67870;DHT22;54673;52.262;6.830;2023-04-12T15:44:11;20.30;49.90
67870;DHT22;54673;52.262;6.830;2023-04-12T15:46:38;20.30;49.90
67870;DHT22;54673;52.262;6.830;2023-04-12T15:49:04;20.30;49.90